Huvudsida
METAR-TAF:

METAR-TAF

Flygplatser :

Szolnok flygplats

Szolnok, Ungern

latitud: 47-07N, longitud: 020-14E, höjd: 89 m

Aktuellt väderrapport

Denna rapport gjordes för 39 minuter sedan, klockan 13:45 UTC
Vind 10 kt från sydväst
Temperatur 10°C
Fuktighet 37%
Tryck 1029 hPa
Sikt 10 km eller mer
Inga moln under 1 500 m eller inga cumulonimbus

METAR: LHSN 221345Z 23010KT CAVOK 10/M04 Q1029 NOSIG RMK BLU

Tid: 15:24 (14:24 UTC)

Väderprognos

Denna rapport gjordes för 3 timmar och 9 minuter sedan, klockan 11:15 UTC
Prognos gäller från 22 kl. 12 UTC till 22 kl. 21 UTC
Vind 10 kt från väst/sydväst
Sikt 10 km eller mer
Inga moln under 1 500 m eller inga cumulonimbus
Blir
från 22 kl. 16 UTC till 22 kl. 19 UTC
Vind 7 kt från syd/sydväst

TAF: LHSN 221115Z 2212/2221 24010KT CAVOK BECMG 2216/2219 20007KT

Aktuella väderrapporter och prognoser från 4000 flygplatser (METAR- och TAF-rapporter).

De tillgängliga stationerna syns som gula och röda prickar på kartan.

För musen över prickarna för att se namnen på stationerna.

Klicka sedan för att få väderrapporter och prognoser.

För att ändra kartan: Klicka på de gröna knapparna med ett svart kors på för att zooma in; den gröna knappen med ett streck på för att zooma ut; eller på de gröna pilarna för angränsande kartor.


METAR-TAF: